College Park, MD

11:25 PM EST on January 19, 2018 (GMT -0500)
College Park

Weather History for KCGS - January, 2012

Change the Weather History Date:

Tuesday, January 31, 2012

  Actual Average Record
Temperature  
Mean Temperature 49 °F -  
Max Temperature 66 °F 44 °F 66 °F (1974)
Min Temperature 32 °F 26 °F -3 °F (1965)
Degree Days  
Heating Degree Days 16    
Moisture  
Dew Point 23 °F    
Average Humidity 36    
Maximum Humidity 75    
Minimum Humidity 18    
Precipitation  
Precipitation 0.00 in - - ()
Sea Level Pressure  
Sea Level Pressure 30.16 in    
Wind  
Wind Speed 3 mph (SSW)    
Max Wind Speed 13 mph    
Max Gust Speed 20 mph    
Visibility 10 miles    
Events      
Averages and records for this station are not official NWS values.
T = Trace of Precipitation, MM = Missing Value Source: NWS Daily Summary

Daily Weather History Graph

Daily Weather History Graph

Search for Another Location

Airport or City:

Trip Planner

Search our weather history database for the weather conditions in past years. The results will help you decide how hot, cold, wet, or windy it might be!

Date:

Astronomy

Jan. 31, 2012 Rise Set
Actual Time 7:15 AM EST 5:27 PM EST
Civil Twilight 6:47 AM EST 5:55 PM EST
Nautical Twilight 6:15 AM EST 6:27 PM EST
Astronomical Twilight 5:43 AM EST 6:58 PM EST
Moon 11:16 AM EST (1/31) 1:01 AM EST (1/31)
Length of Visible Light 11h 08m
Length of Day
10h 11m
First Quarter, 55% of the Moon is Illuminated
Jan 31
First Quarter
Feb 7
Full
Feb 14
Last Quarter
Feb 21
New
Feb 29
First Quarter

Hourly Weather History & Observations

Time (EST) Temp. Windchill Dew Point Humidity Pressure Visibility Wind Dir Wind Speed Gust Speed Precip Events Conditions
12:10 AM 33.8 °F - 24.8 °F 70% 30.23 in 10.0 mi Calm Calm - N/A   Clear
12:30 AM 32.0 °F - 24.8 °F 75% 30.22 in 10.0 mi Calm Calm - N/A   Clear
12:45 AM 32.0 °F - 23.0 °F 69% 30.22 in 10.0 mi Calm Calm - N/A   Clear
1:05 AM 32.0 °F - 23.0 °F 69% 30.21 in 10.0 mi Calm Calm - N/A   Clear
1:25 AM 35.6 °F - 21.2 °F 56% 30.20 in 10.0 mi Calm Calm - N/A   Clear
1:45 AM 42.8 °F 40.1 °F 21.2 °F 42% 30.20 in 10.0 mi SW 4.6 mph - N/A   Clear
2:05 AM 42.8 °F 40.1 °F 21.2 °F 42% 30.20 in 10.0 mi SSW 4.6 mph - N/A   Clear
2:45 AM 42.8 °F - 21.2 °F 42% 30.20 in 10.0 mi Calm Calm - N/A   Clear
3:05 AM 42.8 °F - 21.2 °F 42% 30.19 in 10.0 mi Calm Calm - N/A   Clear
3:20 AM 42.8 °F 41.1 °F 21.2 °F 42% 30.19 in 10.0 mi SSW 3.5 mph - N/A   Clear
3:40 AM 42.8 °F 41.1 °F 23.0 °F 46% 30.19 in 10.0 mi SW 3.5 mph - N/A   Clear
4:00 AM 42.8 °F - 23.0 °F 46% 30.19 in 10.0 mi Calm Calm - N/A   Clear
4:20 AM 42.8 °F - 23.0 °F 46% 30.19 in 10.0 mi Calm Calm - N/A   Clear
4:40 AM 42.8 °F 41.1 °F 23.0 °F 46% 30.19 in 10.0 mi SSW 3.5 mph - N/A   Clear
5:35 AM 42.8 °F - 23.0 °F 46% 30.20 in 10.0 mi Calm Calm - N/A   Clear
5:55 AM 41.0 °F 39.0 °F 23.0 °F 49% 30.20 in 10.0 mi South 3.5 mph - N/A   Clear
6:15 AM 42.8 °F - 24.8 °F 49% 30.20 in 10.0 mi Calm Calm - N/A   Clear
6:35 AM 41.0 °F - 24.8 °F 53% 30.21 in 10.0 mi Calm Calm - N/A   Clear
6:55 AM 37.4 °F - 26.6 °F 65% 30.21 in 10.0 mi Calm Calm - N/A   Clear
7:15 AM 39.2 °F - 24.8 °F 56% 30.22 in 10.0 mi Calm Calm - N/A   Clear
7:35 AM 35.6 °F - 26.6 °F 70% 30.22 in 10.0 mi Calm Calm - N/A   Clear
7:50 AM 35.6 °F - 26.6 °F 70% 30.22 in 10.0 mi Calm Calm - N/A   Clear
8:10 AM 41.0 °F - 26.6 °F 57% 30.23 in 10.0 mi Calm Calm - N/A   Clear
8:30 AM 44.6 °F - 23.0 °F 43% 30.23 in 10.0 mi Calm Calm - N/A   Clear
8:50 AM 46.4 °F 44.3 °F 23.0 °F 40% 30.23 in 10.0 mi SSW 4.6 mph - N/A   Clear
9:10 AM 48.2 °F - 23.0 °F 37% 30.23 in 10.0 mi SSW 5.8 mph - N/A   Clear
9:30 AM 50.0 °F - 23.0 °F 35% 30.23 in 10.0 mi South 3.5 mph - N/A   Clear
9:50 AM 50.0 °F - 23.0 °F 35% 30.23 in 10.0 mi SW 5.8 mph - N/A   Clear
10:10 AM 50.0 °F - 23.0 °F 35% 30.23 in 10.0 mi SW 4.6 mph - N/A   Clear
10:25 AM 51.8 °F - 23.0 °F 33% 30.22 in 10.0 mi South 5.8 mph - N/A   Clear
10:45 AM 53.6 °F - 23.0 °F 30% 30.22 in 10.0 mi SW 4.6 mph - N/A   Clear
11:05 AM 55.4 °F - 23.0 °F 29% 30.21 in 10.0 mi SSW 5.8 mph - N/A   Clear
11:25 AM 55.4 °F - 23.0 °F 29% 30.20 in 10.0 mi SW 5.8 mph - N/A   Clear
11:45 AM 55.4 °F - 23.0 °F 29% 30.19 in 10.0 mi SSW 3.5 mph - N/A   Clear
12:05 PM 59.0 °F - 23.0 °F 25% 30.18 in 10.0 mi SSW 4.6 mph - N/A   Clear
12:25 PM 59.0 °F - 23.0 °F 25% 30.17 in 10.0 mi SW 8.1 mph - N/A   Clear
12:40 PM 59.0 °F - 23.0 °F 25% 30.16 in 10.0 mi SW 6.9 mph - N/A   Clear
1:00 PM 60.8 °F - 23.0 °F 23% 30.15 in 10.0 mi SW 5.8 mph - N/A   Clear
1:20 PM 62.6 °F - 23.0 °F 22% 30.14 in 10.0 mi SSW 8.1 mph - N/A   Clear
1:40 PM 64.4 °F - 23.0 °F 21% 30.13 in 10.0 mi SW 5.8 mph - N/A   Clear
2:20 PM 64.4 °F - 21.2 °F 19% 30.11 in 10.0 mi SSW 6.9 mph - N/A   Clear
2:40 PM 64.4 °F - 21.2 °F 19% 30.11 in 10.0 mi SSW 4.6 mph 16.1 mph N/A   Clear
2:55 PM 64.4 °F - 21.2 °F 19% 30.10 in 10.0 mi SSW 11.5 mph 18.4 mph N/A   Clear
3:15 PM 66.2 °F - 21.2 °F 18% 30.10 in 10.0 mi SSW 8.1 mph 17.3 mph N/A   Clear
3:35 PM 64.4 °F - 21.2 °F 19% 30.09 in 10.0 mi South 9.2 mph 18.4 mph N/A   Clear
3:55 PM 64.4 °F - 21.2 °F 19% 30.09 in 10.0 mi South 12.7 mph 19.6 mph N/A   Clear
4:15 PM 64.4 °F - 21.2 °F 19% 30.09 in 10.0 mi SSW 8.1 mph 17.3 mph N/A   Clear
4:35 PM 64.4 °F - 21.2 °F 19% 30.08 in 10.0 mi SSW 8.1 mph - N/A   Clear
4:55 PM 64.4 °F - 21.2 °F 19% 30.09 in 10.0 mi SSW 5.8 mph - N/A   Clear
5:10 PM 64.4 °F - 21.2 °F 19% 30.09 in 10.0 mi SW 3.5 mph - N/A   Clear
5:30 PM 62.6 °F - 21.2 °F 20% 30.09 in 10.0 mi SSW 3.5 mph - N/A   Clear
5:50 PM 62.6 °F - 21.2 °F 20% 30.09 in 10.0 mi SSW 3.5 mph - N/A   Clear
6:10 PM 60.8 °F - 21.2 °F 22% 30.10 in 10.0 mi SSW 3.5 mph - N/A   Clear
6:30 PM 59.0 °F - 23.0 °F 25% 30.10 in 10.0 mi Calm Calm - N/A   Clear
7:10 PM 59.0 °F - 23.0 °F 25% 30.10 in 10.0 mi SSW 3.5 mph - N/A   Clear
7:25 PM 60.8 °F - 21.2 °F 22% 30.10 in 10.0 mi South 3.5 mph - N/A   Clear
7:45 PM 59.0 °F - 21.2 °F 23% 30.10 in 10.0 mi SSW 3.5 mph - N/A   Clear
8:05 PM 60.8 °F - 21.2 °F 22% 30.09 in 10.0 mi SW 4.6 mph - N/A   Clear
8:25 PM 59.0 °F - 21.2 °F 23% 30.09 in 10.0 mi SSW 3.5 mph - N/A   Clear
8:45 PM 59.0 °F - 21.2 °F 23% 30.09 in 10.0 mi SSW 3.5 mph - N/A   Clear
9:05 PM 59.0 °F - 23.0 °F 25% 30.10 in 10.0 mi SSW 4.6 mph - N/A   Clear
9:25 PM 59.0 °F - 23.0 °F 25% 30.09 in 10.0 mi SSW 3.5 mph - N/A   Clear
9:40 PM 59.0 °F - 23.0 °F 25% 30.10 in 10.0 mi SW 3.5 mph - N/A   Clear
10:00 PM 57.2 °F - 24.8 °F 29% 30.09 in 10.0 mi SSW 3.5 mph - N/A   Clear
10:20 PM 55.4 °F - 24.8 °F 31% 30.09 in 10.0 mi SW 3.5 mph - N/A   Clear
10:40 PM 55.4 °F - 26.6 °F 33% 30.09 in 10.0 mi SW 3.5 mph - N/A   Clear
11:00 PM 55.4 °F - 26.6 °F 33% 30.08 in 10.0 mi Calm Calm - N/A   Clear
11:20 PM 55.4 °F - 26.6 °F 33% 30.07 in 10.0 mi Calm Calm - N/A   Clear
11:40 PM 55.4 °F - 28.4 °F 36% 30.07 in 10.0 mi Calm Calm - N/A   Clear
11:55 PM 55.4 °F - 28.4 °F 36% 30.07 in 10.0 mi SSW 3.5 mph - N/A   Clear